createdAt,value
2022-12-04T00:01:14.003Z,22.60
2022-12-04T00:03:40.970Z,23.25
2022-12-04T00:06:11.471Z,21.92
2022-12-04T00:08:39.236Z,21.23
2022-12-04T00:11:08.805Z,21.63
2022-12-04T00:13:36.813Z,20.73
2022-12-04T00:16:13.001Z,21.90
2022-12-04T00:18:40.393Z,23.10
2022-12-04T00:21:10.472Z,21.85
2022-12-04T00:23:38.990Z,20.45
2022-12-04T00:26:17.800Z,22.83
2022-12-04T00:28:45.318Z,21.65
2022-12-04T00:31:15.866Z,19.02
2022-12-04T00:33:43.382Z,20.05
2022-12-04T00:36:12.787Z,20.05
2022-12-04T00:38:40.859Z,20.13
2022-12-04T00:41:12.648Z,19.98
2022-12-04T00:43:40.312Z,20.67
2022-12-04T00:46:08.091Z,20.33
2022-12-04T00:48:35.235Z,20.80
2022-12-04T00:51:04.453Z,18.20
2022-12-04T00:53:31.788Z,20.67
2022-12-04T00:55:59.025Z,18.95
2022-12-04T00:58:25.863Z,21.08
2022-12-04T01:01:05.513Z,20.38
2022-12-04T01:03:32.509Z,19.80
2022-12-04T01:06:00.016Z,20.50
2022-12-04T01:08:27.313Z,22.55
2022-12-04T01:10:54.238Z,19.20
2022-12-04T01:13:22.424Z,21.17
2022-12-04T01:15:49.705Z,20.10
2022-12-04T01:18:17.900Z,21.08
2022-12-04T01:20:48.887Z,20.50
2022-12-04T01:23:15.911Z,19.52
2022-12-04T01:25:59.451Z,20.17
2022-12-04T01:28:26.814Z,18.27
2022-12-04T01:31:21.268Z,20.55
2022-12-04T01:33:49.397Z,19.88
2022-12-04T01:36:22.767Z,20.67
2022-12-04T01:38:49.696Z,17.80
2022-12-04T01:41:19.596Z,19.50
2022-12-04T01:44:06.343Z,17.10
2022-12-04T01:46:33.244Z,17.25
2022-12-04T01:49:00.428Z,18.52
2022-12-04T01:51:33.369Z,16.40
2022-12-04T01:54:05.210Z,15.43
2022-12-04T01:57:06.504Z,15.93
2022-12-04T01:59:38.474Z,16.85
2022-12-04T02:02:09.763Z,16.60
2022-12-04T02:04:38.734Z,15.63
2022-12-04T02:07:06.048Z,15.93
2022-12-04T02:09:34.354Z,15.63
2022-12-04T02:12:13.194Z,15.27
2022-12-04T02:14:39.999Z,14.70
2022-12-04T02:17:15.939Z,16.67
2022-12-04T02:20:13.695Z,15.13
2022-12-04T02:23:05.614Z,13.82
2022-12-04T02:25:55.923Z,14.98
2022-12-04T02:28:41.385Z,14.45
2022-12-04T02:31:18.433Z,16.05
2022-12-04T02:34:04.066Z,15.52
2022-12-04T02:36:36.514Z,14.65
2022-12-04T02:39:12.367Z,15.88
2022-12-04T02:41:56.072Z,13.40
2022-12-04T02:44:30.348Z,15.02
2022-12-04T02:47:07.192Z,16.38
2022-12-04T02:49:45.575Z,15.75
2022-12-04T02:52:17.994Z,14.38
2022-12-04T02:54:56.102Z,15.38
2022-12-04T02:57:28.741Z,18.15
2022-12-04T02:59:58.132Z,14.65
2022-12-04T03:02:32.078Z,15.85
2022-12-04T03:05:03.583Z,21.15
2022-12-04T03:08:02.833Z,16.48
2022-12-04T03:10:38.113Z,17.95
2022-12-04T03:13:16.137Z,18.30
2022-12-04T03:15:45.575Z,15.80
2022-12-04T03:18:18.470Z,18.42
2022-12-04T03:20:50.187Z,16.10
2022-12-04T03:23:26.039Z,15.52
2022-12-04T03:26:12.153Z,15.25
2022-12-04T03:29:11.909Z,16.25
2022-12-04T03:31:47.205Z,15.20
2022-12-04T03:34:20.113Z,15.43
2022-12-04T03:36:53.229Z,15.88
2022-12-04T03:39:26.476Z,16.20
2022-12-04T03:42:08.440Z,16.63
2022-12-04T03:44:49.241Z,12.60
2022-12-04T03:47:26.161Z,13.27
2022-12-04T03:50:02.020Z,12.07
2022-12-04T03:52:53.471Z,12.63
2022-12-04T03:55:29.028Z,11.30
2022-12-04T03:58:02.234Z,12.05
2022-12-04T04:00:30.034Z,10.93
2022-12-04T04:03:07.573Z,11.48
2022-12-04T04:05:38.260Z,11.65
2022-12-04T04:08:26.386Z,11.65
2022-12-04T04:11:25.758Z,10.38
2022-12-04T04:14:23.721Z,10.13
2022-12-04T04:17:18.011Z,10.15
2022-12-04T04:20:08.937Z,10.35
2022-12-04T04:22:56.296Z,9.85
2022-12-04T04:25:26.887Z,9.60
2022-12-04T04:27:58.841Z,9.75
2022-12-04T04:30:29.475Z,9.80
2022-12-04T04:33:16.378Z,11.68
2022-12-04T04:36:02.659Z,10.38
2022-12-04T04:38:45.718Z,12.27
2022-12-04T04:41:22.015Z,10.23
2022-12-04T04:44:33.799Z,10.80
2022-12-04T04:47:06.128Z,10.07
2022-12-04T04:49:35.937Z,10.43
2022-12-04T04:52:03.467Z,9.75
2022-12-04T04:54:32.190Z,10.90
2022-12-04T04:56:59.285Z,10.52
2022-12-04T04:59:26.132Z,11.27
2022-12-04T05:01:53.022Z,11.40
2022-12-04T05:04:19.992Z,10.25
2022-12-04T05:06:48.940Z,8.35
2022-12-04T05:09:15.853Z,10.45
2022-12-04T05:11:43.085Z,9.55
2022-12-04T05:14:10.039Z,11.50
2022-12-04T05:16:38.462Z,10.27
2022-12-04T05:19:23.794Z,10.27
2022-12-04T05:21:51.043Z,11.45
2022-12-04T05:24:17.826Z,11.30
2022-12-04T05:26:44.690Z,12.65
2022-12-04T05:29:11.497Z,14.82
2022-12-04T05:31:38.888Z,16.17
2022-12-04T05:34:05.765Z,14.73
2022-12-04T05:36:32.493Z,14.50
2022-12-04T05:38:59.702Z,17.58
2022-12-04T05:41:26.484Z,16.58
2022-12-04T05:43:53.292Z,14.30
2022-12-04T05:46:20.113Z,13.18
2022-12-04T05:48:46.977Z,14.23
2022-12-04T05:51:13.942Z,13.80
2022-12-04T05:53:40.909Z,14.30
2022-12-04T05:56:08.422Z,12.25
2022-12-04T05:58:36.705Z,12.55
2022-12-04T06:01:16.849Z,11.38
2022-12-04T06:03:44.430Z,12.18
2022-12-04T06:06:21.469Z,12.82
2022-12-04T06:08:52.959Z,14.27
2022-12-04T06:11:23.747Z,13.65
2022-12-04T06:13:50.814Z,14.70
2022-12-04T06:16:26.630Z,14.98
2022-12-04T06:18:55.915Z,15.68
2022-12-04T06:21:24.188Z,15.40
2022-12-04T06:23:52.312Z,21.13
2022-12-04T06:26:19.851Z,18.05
2022-12-04T06:28:47.005Z,16.27
2022-12-04T06:31:16.024Z,16.73
2022-12-04T06:33:43.203Z,16.52
2022-12-04T06:36:15.767Z,15.82
2022-12-04T06:38:43.093Z,19.50
2022-12-04T06:41:13.189Z,17.52
2022-12-04T06:43:40.613Z,17.25
2022-12-04T06:46:16.315Z,18.23
2022-12-04T06:48:43.472Z,18.45
2022-12-04T06:51:22.198Z,19.02
2022-12-04T06:53:49.598Z,17.38
2022-12-04T06:56:18.780Z,16.02
2022-12-04T06:58:46.694Z,16.65
2022-12-04T07:01:15.648Z,15.68
2022-12-04T07:03:47.814Z,17.52
2022-12-04T07:06:22.415Z,19.20
2022-12-04T07:08:55.310Z,19.58
2022-12-04T07:11:22.553Z,14.07
2022-12-04T07:13:50.360Z,17.13
2022-12-04T07:16:20.220Z,13.35
2022-12-04T07:18:50.400Z,16.33
2022-12-04T07:21:19.142Z,17.00
2022-12-04T07:23:50.161Z,16.08
2022-12-04T07:26:17.456Z,16.10
2022-12-04T07:28:47.139Z,15.00
2022-12-04T07:31:19.753Z,16.30
2022-12-04T07:33:48.000Z,15.00
2022-12-04T07:36:19.500Z,18.35
2022-12-04T07:38:46.934Z,14.82
2022-12-04T07:41:14.679Z,13.63
2022-12-04T07:43:41.918Z,14.18
2022-12-04T07:46:12.606Z,16.13
2022-12-04T07:48:39.935Z,14.48
2022-12-04T07:51:09.361Z,12.57
2022-12-04T07:53:37.053Z,13.13
2022-12-04T07:56:05.685Z,14.15
2022-12-04T07:58:33.537Z,12.73
2022-12-04T08:01:09.645Z,14.35
2022-12-04T08:03:40.845Z,12.48
2022-12-04T08:08:57.538Z,13.18
2022-12-04T08:11:26.439Z,16.02
2022-12-04T08:13:58.824Z,15.32
2022-12-04T08:16:27.112Z,18.50
2022-12-04T08:18:54.356Z,15.05
2022-12-04T08:21:24.097Z,15.93
2022-12-04T08:23:52.806Z,15.43
2022-12-04T08:26:20.908Z,16.50
2022-12-04T08:28:47.856Z,16.85
2022-12-04T08:31:20.997Z,14.77
2022-12-04T08:33:49.296Z,20.52
2022-12-04T08:36:19.717Z,20.38
2022-12-04T08:38:47.418Z,16.95
2022-12-04T08:41:16.669Z,17.58
2022-12-04T08:43:43.646Z,21.60
2022-12-04T08:46:13.617Z,28.23
2022-12-04T08:48:40.899Z,21.88
2022-12-04T08:51:17.325Z,16.63
2022-12-04T08:53:44.245Z,14.70
2022-12-04T08:56:11.245Z,23.13
2022-12-04T08:58:38.990Z,15.85
2022-12-04T09:01:08.189Z,17.15
2022-12-04T09:03:35.726Z,16.38
2022-12-04T09:06:04.695Z,15.43
2022-12-04T09:08:32.147Z,16.80
2022-12-04T09:11:15.987Z,15.75
2022-12-04T09:13:43.665Z,16.35
2022-12-04T09:16:14.522Z,15.40
2022-12-04T09:18:41.440Z,14.48
2022-12-04T09:21:12.076Z,15.43
2022-12-04T09:23:39.872Z,17.60
2022-12-04T09:26:18.969Z,15.77
2022-12-04T09:28:47.047Z,18.67
2022-12-04T09:31:14.423Z,28.67
2022-12-04T09:33:41.348Z,27.08
2022-12-04T09:36:08.307Z,24.30
2022-12-04T09:38:35.221Z,26.48
2022-12-04T09:41:17.400Z,33.40
2022-12-04T09:43:51.480Z,35.00
2022-12-04T09:46:34.228Z,65.32
2022-12-04T09:49:07.020Z,80.68
2022-12-04T09:51:38.482Z,45.05
2022-12-04T09:54:33.179Z,33.72
2022-12-04T09:57:31.217Z,31.40
2022-12-04T09:59:58.722Z,35.38
2022-12-04T10:02:29.088Z,31.95
2022-12-04T10:04:56.749Z,32.65
2022-12-04T10:07:30.712Z,44.67
2022-12-04T10:10:03.335Z,31.60
2022-12-04T10:12:45.615Z,30.02
2022-12-04T10:15:41.691Z,23.38
2022-12-04T10:18:35.515Z,26.92
2022-12-04T10:21:11.419Z,33.83
2022-12-04T10:23:59.133Z,30.30
2022-12-04T10:26:33.473Z,30.65
2022-12-04T10:29:04.016Z,41.75
2022-12-04T10:31:34.308Z,30.10
2022-12-04T10:34:23.661Z,37.45
2022-12-04T10:36:55.433Z,26.30
2022-12-04T10:39:45.590Z,29.27
2022-12-04T10:42:40.943Z,40.45
2022-12-04T10:45:08.273Z,30.55
2022-12-04T10:47:35.499Z,30.60
2022-12-04T10:50:16.079Z,28.65
2022-12-04T10:52:43.046Z,24.95
2022-12-04T10:55:10.176Z,35.47
2022-12-04T10:57:46.285Z,30.20
2022-12-04T11:00:26.211Z,31.48
2022-12-04T11:02:55.313Z,29.45
2022-12-04T11:05:47.852Z,34.03
2022-12-04T11:08:24.551Z,37.05
2022-12-04T11:11:01.470Z,36.08
2022-12-04T11:13:29.172Z,30.48
2022-12-04T11:15:58.620Z,27.42
2022-12-04T11:18:30.529Z,27.55
2022-12-04T11:21:05.250Z,29.45
2022-12-04T11:26:08.698Z,29.42
2022-12-04T11:28:42.405Z,28.10
2022-12-04T11:31:16.747Z,34.88
2022-12-04T11:33:52.761Z,31.73
2022-12-04T11:36:28.237Z,28.13
2022-12-04T11:39:16.432Z,33.90
2022-12-04T11:41:43.903Z,31.85
2022-12-04T11:44:27.322Z,32.63
2022-12-04T11:46:56.762Z,33.47
2022-12-04T11:49:26.220Z,38.85
2022-12-04T11:52:05.373Z,38.55
2022-12-04T11:54:53.969Z,36.30
2022-12-04T11:57:31.610Z,21.23
2022-12-04T12:00:15.118Z,28.63
2022-12-04T12:02:56.948Z,28.90
2022-12-04T12:05:43.889Z,26.48
2022-12-04T12:08:16.862Z,24.70
2022-12-04T12:11:07.099Z,21.27
2022-12-04T12:13:37.612Z,27.52
2022-12-04T12:16:29.158Z,21.45
2022-12-04T12:21:54.100Z,26.98
2022-12-04T12:32:49.018Z,23.25
2022-12-04T12:37:54.525Z,22.98
2022-12-04T12:40:48.680Z,31.90
2022-12-04T12:46:34.208Z,29.30
2022-12-04T12:49:07.858Z,29.08
2022-12-04T13:00:07.726Z,29.67
2022-12-04T13:03:02.864Z,26.98
2022-12-04T13:05:41.090Z,29.77
2022-12-04T13:08:21.486Z,34.35
2022-12-04T13:11:10.521Z,31.60
2022-12-04T13:13:52.948Z,32.28
2022-12-04T13:16:40.228Z,33.80
2022-12-04T13:19:24.825Z,41.88
2022-12-04T13:22:15.743Z,31.77
2022-12-04T13:24:58.119Z,30.08
2022-12-04T13:27:53.089Z,31.67
2022-12-04T13:30:23.352Z,33.70
2022-12-04T13:33:15.929Z,28.65
2022-12-04T13:36:07.050Z,29.67
2022-12-04T13:38:55.098Z,32.25
2022-12-04T13:41:27.155Z,39.35
2022-12-04T13:43:55.204Z,37.55
2022-12-04T13:46:54.624Z,32.58
2022-12-04T13:49:37.975Z,29.33
2022-12-04T13:52:21.010Z,37.17
2022-12-04T13:54:59.076Z,34.10
2022-12-04T13:57:28.257Z,28.42
2022-12-04T14:00:23.649Z,32.17
2022-12-04T14:02:53.997Z,31.85
2022-12-04T14:05:31.593Z,33.45
2022-12-04T14:08:07.538Z,34.77
2022-12-04T14:10:38.661Z,28.33
2022-12-04T14:13:14.696Z,32.38
2022-12-04T14:15:42.042Z,35.33
2022-12-04T14:18:12.423Z,33.22
2022-12-04T14:20:41.635Z,33.42
2022-12-04T14:23:26.045Z,32.83
2022-12-04T14:25:57.940Z,27.55
2022-12-04T14:28:26.832Z,25.25
2022-12-04T14:31:08.540Z,23.17
2022-12-04T14:33:44.291Z,24.85
2022-12-04T14:36:21.098Z,27.15
2022-12-04T14:38:50.715Z,43.30
2022-12-04T14:41:26.097Z,24.15
2022-12-04T14:43:53.681Z,30.02
2022-12-04T14:46:37.160Z,24.05
2022-12-04T14:49:36.995Z,25.85
2022-12-04T14:52:08.662Z,26.05
2022-12-04T14:54:49.638Z,27.40
2022-12-04T14:57:31.231Z,25.98
2022-12-04T14:59:58.395Z,19.92
2022-12-04T15:02:33.541Z,21.20
2022-12-04T15:05:02.113Z,21.85
2022-12-04T15:07:31.664Z,21.15
2022-12-04T15:10:19.830Z,23.23
2022-12-04T15:12:54.426Z,23.65
2022-12-04T15:15:28.278Z,20.63
2022-12-04T15:18:01.443Z,24.85
2022-12-04T15:20:39.229Z,24.40
2022-12-04T15:23:06.504Z,25.35
2022-12-04T15:25:41.540Z,24.27
2022-12-04T15:28:24.678Z,19.60
2022-12-04T15:30:52.782Z,18.63
2022-12-04T15:33:23.842Z,20.30
2022-12-04T15:35:55.359Z,20.27
2022-12-04T15:38:23.110Z,23.15
2022-12-04T15:40:56.027Z,23.42
2022-12-04T15:43:38.973Z,25.77
2022-12-04T15:46:24.957Z,30.80
2022-12-04T15:48:51.819Z,41.28
2022-12-04T15:51:21.383Z,35.28
2022-12-04T15:53:48.284Z,56.65
2022-12-04T15:56:20.479Z,38.63
2022-12-04T15:58:59.814Z,36.33
2022-12-04T16:01:27.337Z,36.78
2022-12-04T16:03:56.174Z,32.25
2022-12-04T16:06:25.008Z,64.22
2022-12-04T16:08:57.637Z,44.40
2022-12-04T16:11:31.013Z,44.40
2022-12-04T16:14:05.648Z,29.52
2022-12-04T16:16:32.586Z,34.10
2022-12-04T16:19:07.881Z,37.33
2022-12-04T16:21:35.955Z,36.38
2022-12-04T16:24:07.497Z,39.22
2022-12-04T16:26:34.393Z,34.85
2022-12-04T16:29:01.345Z,30.50
2022-12-04T16:31:28.253Z,27.83
2022-12-04T16:33:55.118Z,24.67
2022-12-04T16:36:21.876Z,32.30
2022-12-04T16:38:48.708Z,34.78
2022-12-04T16:41:17.548Z,37.40
2022-12-04T16:43:44.859Z,36.83
2022-12-04T16:46:16.969Z,42.28
2022-12-04T16:48:44.317Z,40.47
2022-12-04T16:51:24.859Z,31.58
2022-12-04T16:53:52.958Z,37.35
2022-12-04T16:56:20.514Z,48.10
2022-12-04T16:58:47.909Z,48.10
2022-12-04T17:01:25.782Z,46.17
2022-12-04T17:03:52.981Z,39.67
2022-12-04T17:06:20.531Z,46.72
2022-12-04T17:08:49.085Z,51.22
2022-12-04T17:11:17.641Z,55.70
2022-12-04T17:13:45.154Z,49.25
2022-12-04T17:16:15.035Z,37.42
2022-12-04T17:18:43.479Z,36.88
2022-12-04T17:21:12.353Z,37.70
2022-12-04T17:23:40.176Z,33.17
2022-12-04T17:26:09.439Z,38.70
2022-12-04T17:28:36.914Z,37.08
2022-12-04T17:31:06.265Z,32.35
2022-12-04T17:33:33.275Z,30.63
2022-12-04T17:36:03.531Z,32.60
2022-12-04T17:38:30.548Z,21.75
2022-12-04T17:41:02.690Z,23.23
2022-12-04T17:43:31.537Z,18.15
2022-12-04T17:45:59.189Z,20.23
2022-12-04T17:48:27.573Z,20.65
2022-12-04T17:51:10.654Z,22.98
2022-12-04T17:53:38.290Z,21.65
2022-12-04T17:56:08.738Z,17.85
2022-12-04T17:58:36.476Z,21.30
2022-12-04T18:01:09.313Z,19.95
2022-12-04T18:03:37.681Z,18.13
2022-12-04T18:06:18.055Z,20.02
2022-12-04T18:08:50.001Z,18.63
2022-12-04T18:11:20.780Z,20.33
2022-12-04T18:13:56.774Z,19.67
2022-12-04T18:16:24.270Z,17.60
2022-12-04T18:18:54.086Z,17.00
2022-12-04T18:21:21.906Z,17.00
2022-12-04T18:23:49.276Z,21.50
2022-12-04T18:26:24.705Z,18.92
2022-12-04T18:28:51.674Z,16.33
2022-12-04T18:31:19.536Z,19.83
2022-12-04T18:33:46.984Z,19.63
2022-12-04T18:36:26.033Z,25.00
2022-12-04T18:38:58.324Z,21.75
2022-12-04T18:41:26.511Z,22.55
2022-12-04T18:43:53.668Z,31.95
2022-12-04T18:46:21.513Z,34.50
2022-12-04T18:48:49.768Z,39.83
2022-12-04T18:51:21.194Z,41.53
2022-12-04T18:53:49.504Z,33.22
2022-12-04T18:56:17.528Z,34.00
2022-12-04T18:58:46.508Z,31.98
2022-12-04T19:01:20.256Z,29.20
2022-12-04T19:03:48.033Z,30.23
2022-12-04T19:06:15.479Z,27.42
2022-12-04T19:08:43.657Z,31.05
2022-12-04T19:11:15.886Z,31.40
2022-12-04T19:13:43.269Z,24.17
2022-12-04T19:16:15.008Z,27.17
2022-12-04T19:18:45.289Z,46.33
2022-12-04T19:21:13.485Z,38.40
2022-12-04T19:23:41.174Z,25.20
2022-12-04T19:26:08.633Z,27.90
2022-12-04T19:28:36.588Z,24.55
2022-12-04T19:31:04.331Z,21.85
2022-12-04T19:33:31.182Z,24.33
2022-12-04T19:36:03.893Z,25.17
2022-12-04T19:38:31.884Z,31.33
2022-12-04T19:41:10.375Z,30.70
2022-12-04T19:43:39.290Z,22.30
2022-12-04T19:46:08.322Z,24.38
2022-12-04T19:48:37.947Z,23.08
2022-12-04T19:51:12.361Z,19.13
2022-12-04T19:53:42.841Z,19.60
2022-12-04T19:56:24.569Z,18.25
2022-12-04T19:58:53.314Z,23.23
2022-12-04T20:01:26.738Z,20.95
2022-12-04T20:03:54.954Z,21.25
2022-12-04T20:06:28.550Z,19.67
2022-12-04T20:09:10.146Z,20.02
2022-12-04T20:11:41.200Z,15.90
2022-12-04T20:14:11.901Z,16.80
2022-12-04T20:16:40.040Z,18.27
2022-12-04T20:19:13.859Z,18.42
2022-12-04T20:21:40.990Z,19.60
2022-12-04T20:24:08.244Z,26.70
2022-12-04T20:26:38.526Z,19.00
2022-12-04T20:29:06.888Z,22.83
2022-12-04T20:31:37.428Z,20.75
2022-12-04T20:34:07.336Z,21.15
2022-12-04T20:36:40.223Z,18.30
2022-12-04T20:39:07.686Z,23.05
2022-12-04T20:41:35.610Z,21.35
2022-12-04T20:44:05.109Z,23.88
2022-12-04T20:46:35.241Z,19.30
2022-12-04T20:49:05.064Z,29.08
2022-12-04T20:51:34.805Z,64.53
2022-12-04T20:54:02.448Z,23.63
2022-12-04T20:56:32.069Z,21.85
2022-12-04T20:59:01.457Z,22.67
2022-12-04T21:01:28.944Z,21.45
2022-12-04T21:03:57.813Z,19.10
2022-12-04T21:06:34.442Z,20.45
2022-12-04T21:09:08.087Z,20.38
2022-12-04T21:11:41.175Z,19.00
2022-12-04T21:14:35.759Z,23.38
2022-12-04T21:17:04.121Z,20.30
2022-12-04T21:19:32.271Z,17.13
2022-12-04T21:21:59.186Z,20.58
2022-12-04T21:24:28.099Z,18.10
2022-12-04T21:26:56.028Z,16.77
2022-12-04T21:29:23.423Z,21.85
2022-12-04T21:31:50.208Z,19.88
2022-12-04T21:34:18.045Z,21.58
2022-12-04T21:36:46.461Z,19.60
2022-12-04T21:39:14.840Z,19.75
2022-12-04T21:42:00.783Z,20.30
2022-12-04T21:44:27.966Z,20.30
2022-12-04T21:46:55.143Z,19.13
2022-12-04T21:49:22.383Z,19.92
2022-12-04T21:51:57.318Z,19.10
2022-12-04T21:54:25.461Z,18.98
2022-12-04T21:56:52.365Z,19.80
2022-12-04T21:59:19.202Z,20.15
2022-12-04T22:01:46.314Z,20.25
2022-12-04T22:04:13.616Z,19.05
2022-12-04T22:06:40.703Z,19.20
2022-12-04T22:09:09.332Z,21.38
2022-12-04T22:11:36.920Z,18.27
2022-12-04T22:14:04.317Z,19.25
2022-12-04T22:16:33.686Z,21.45
2022-12-04T22:19:02.668Z,23.33
2022-12-04T22:21:30.027Z,20.23
2022-12-04T22:24:01.998Z,23.98
2022-12-04T22:26:29.876Z,22.92
2022-12-04T22:28:57.688Z,21.02
2022-12-04T22:31:27.348Z,21.75
2022-12-04T22:33:56.286Z,20.83
2022-12-04T22:36:30.400Z,20.63
2022-12-04T22:39:12.914Z,20.70
2022-12-04T22:41:40.215Z,20.95
2022-12-04T22:44:07.104Z,17.23
2022-12-04T22:46:34.712Z,18.17
2022-12-04T22:49:01.613Z,19.52
2022-12-04T22:51:28.607Z,19.77
2022-12-04T22:53:58.135Z,18.00
2022-12-04T22:56:29.135Z,19.38
2022-12-04T22:58:57.905Z,20.23
2022-12-04T23:01:30.517Z,20.55
2022-12-04T23:03:57.762Z,22.95
2022-12-04T23:06:26.585Z,20.13
2022-12-04T23:08:58.374Z,20.42
2022-12-04T23:11:26.430Z,21.35
2022-12-04T23:13:56.275Z,18.67
2022-12-04T23:16:24.250Z,20.17
2022-12-04T23:18:51.442Z,22.25
2022-12-04T23:21:19.912Z,20.45
2022-12-04T23:23:48.069Z,21.50
2022-12-04T23:26:17.989Z,23.48
2022-12-04T23:28:45.236Z,18.88
2022-12-04T23:31:12.663Z,17.15
2022-12-04T23:33:40.977Z,21.23
2022-12-04T23:36:09.709Z,21.30
2022-12-04T23:38:38.279Z,20.33
2022-12-04T23:41:13.530Z,21.67
2022-12-04T23:43:41.093Z,19.38
2022-12-04T23:46:11.281Z,19.50
2022-12-04T23:48:40.219Z,20.15
2022-12-04T23:51:07.678Z,17.90
2022-12-04T23:53:35.614Z,20.55
2022-12-04T23:56:12.345Z,19.02
2022-12-04T23:58:40.118Z,16.85
